Time;durP1;ratioP1;P1;durP2;ratioP2;P2;SDS_P1;SDS_P2;PMS_P1;PMS_P2;Temp;Humidity;BMP_temperature;BMP_pressure;BME280_temperature;BME280_humidity;BME280_pressure;Samples;Min_cycle;Max_cycle;Signal;HPM_P1;HPM_P2
2022/05/30 00:01:09;;;;;;;32.70;12.70;;;9.60;82.50;;;;;;5028163;28;20494;-70
2022/05/30 00:03:37;;;;;;;14.60;8.37;;;9.60;82.80;;;;;;5040890;28;20481;-74
2022/05/30 00:06:08;;;;;;;18.50;9.87;;;9.60;82.80;;;;;;5041318;28;20844;-75
2022/05/30 00:08:35;;;;;;;40.87;8.43;;;9.60;82.80;;;;;;5038116;28;20555;-72
2022/05/30 00:11:03;;;;;;;12.63;7.60;;;9.60;83.00;;;;;;5037566;28;20474;-71
2022/05/30 00:13:32;;;;;;;14.27;7.97;;;9.50;82.30;;;;;;5045369;28;20591;-73
2022/05/30 00:16:03;;;;;;;17.53;6.30;;;9.50;82.20;;;;;;5049264;28;20473;-74
2022/05/30 00:18:30;;;;;;;12.47;7.40;;;9.60;82.40;;;;;;5044713;28;20835;-73
2022/05/30 00:20:58;;;;;;;14.20;7.53;;;9.50;81.90;;;;;;5036869;28;20503;-74
2022/05/30 00:23:25;;;;;;;13.50;5.53;;;9.30;81.00;;;;;;5047647;28;20484;-75
2022/05/30 00:25:53;;;;;;;9.90;6.00;;;9.30;81.00;;;;;;5045126;28;21002;-73
2022/05/30 00:28:21;;;;;;;13.27;7.50;;;9.20;81.00;;;;;;5037761;28;20644;-74
2022/05/30 00:30:51;;;;;;;11.13;6.77;;;9.10;81.70;;;;;;5039103;28;20498;-71
2022/05/30 00:33:19;;;;;;;13.90;7.60;;;9.00;82.00;;;;;;5032295;28;20570;-72
2022/05/30 00:35:47;;;;;;;24.97;9.03;;;9.00;83.10;;;;;;5027655;28;20559;-72
2022/05/30 00:38:14;;;;;;;26.57;11.30;;;9.00;82.90;;;;;;5050808;28;20481;-73
2022/05/30 00:40:42;;;;;;;25.23;10.20;;;9.10;82.10;;;;;;5035547;28;21056;-72
2022/05/30 00:43:25;;;;;;;22.63;10.20;;;10.80;82.80;;;;;;5041756;28;20576;-72
2022/05/30 00:45:57;;;;;;;15.10;7.67;;;9.10;82.50;;;;;;5049162;28;20923;-74
2022/05/30 00:48:27;;;;;;;7.43;4.27;;;9.20;82.30;;;;;;5037262;28;20837;-73
2022/05/30 00:51:00;;;;;;;8.23;5.07;;;9.20;82.70;;;;;;5039208;28;20488;-73
2022/05/30 00:53:28;;;;;;;9.73;5.63;;;9.20;83.10;;;;;;5052315;28;20494;-74
2022/05/30 00:55:55;;;;;;;15.20;5.17;;;;;;;;;;5036600;28;20973;-72
2022/05/30 00:58:25;;;;;;;10.97;6.50;;;9.20;81.10;;;;;;5037746;28;20486;-75
2022/05/30 01:00:51;;;;;;;12.00;6.50;;;9.20;81.20;;;;;;5041533;28;20632;-73
2022/05/30 01:08:48;;;;;;;13.40;6.93;;;9.10;82.40;;;;;;5043267;28;20490;-74
2022/05/30 01:11:15;;;;;;;24.63;10.70;;;9.10;82.60;;;;;;5039774;28;20471;-72
2022/05/30 01:13:41;;;;;;;22.30;6.87;;;9.10;82.70;;;;;;5039418;28;20486;-72
2022/05/30 01:16:08;;;;;;;17.40;8.30;;;9.10;82.70;;;;;;5040952;28;20485;-71
2022/05/30 01:18:44;;;;;;;15.50;7.80;;;9.10;82.70;;;;;;5043380;28;20488;-73
2022/05/30 01:21:43;;;;;;;36.10;12.27;;;8.90;80.00;;;;;;5036762;28;20747;-73
2022/05/30 01:24:25;;;;;;;26.00;8.40;;;8.80;79.90;;;;;;5026479;28;20492;-75
2022/05/30 01:27:09;;;;;;;17.47;8.23;;;8.60;79.70;;;;;;5044711;28;21043;-73
2022/05/30 01:29:43;;;;;;;15.40;7.70;;;8.40;79.90;;;;;;5044719;28;20482;-73
2022/05/30 01:32:11;;;;;;;27.93;11.70;;;8.30;80.00;;;;;;5035699;28;20594;-75
2022/05/30 01:34:37;;;;;;;43.47;8.53;;;8.10;80.00;;;;;;5042603;28;21332;-73
2022/05/30 01:37:05;;;;;;;27.53;11.17;;;7.90;81.10;;;;;;5032647;28;20486;-73
2022/05/30 01:39:31;;;;;;;16.53;7.30;;;7.60;81.90;;;;;;5031836;28;20497;-75
2022/05/30 01:41:59;;;;;;;41.53;6.60;;;7.50;82.30;;;;;;5055730;28;20640;-75
2022/05/30 01:44:26;;;;;;;11.10;5.90;;;7.50;82.30;;;;;;5044290;28;20489;-73
2022/05/30 01:46:54;;;;;;;10.50;5.50;;;7.50;82.30;;;;;;5035884;28;20488;-71
2022/05/30 01:49:21;;;;;;;13.63;6.83;;;7.50;82.40;;;;;;5054621;28;20686;-75
2022/05/30 01:51:53;;;;;;;16.43;7.73;;;7.50;83.10;;;;;;5040734;28;20793;-71
2022/05/30 01:54:20;;;;;;;10.50;7.10;;;7.60;83.50;;;;;;5028688;28;20506;-72
2022/05/30 01:56:48;;;;;;;15.40;5.83;;;7.60;83.30;;;;;;5044046;28;20477;-73
2022/05/30 01:59:15;;;;;;;16.83;10.60;;;7.70;83.10;;;;;;5043544;28;20997;-73
2022/05/30 02:01:45;;;;;;;12.87;8.63;;;7.70;82.90;;;;;;5038225;28;20494;-72
2022/05/30 02:04:14;;;;;;;22.47;8.90;;;7.70;82.10;;;;;;5057197;28;21007;-74
2022/05/30 02:06:40;;;;;;;8.73;5.97;;;7.30;81.50;;;;;;5038595;28;20481;-72
2022/05/30 02:09:08;;;;;;;11.43;7.60;;;7.60;81.90;;;;;;5035859;28;20862;-74
2022/05/30 02:11:35;;;;;;;15.00;6.20;;;7.50;81.60;;;;;;5046723;28;20484;-73
2022/05/30 02:14:02;;;;;;;10.03;6.87;;;7.50;81.60;;;;;;5040659;28;20477;-72
2022/05/30 02:19:17;;;;;;;18.13;10.60;;;7.10;82.40;;;;;;5029887;28;20492;-74
2022/05/30 02:21:43;;;;;;;10.40;6.93;;;7.10;82.60;;;;;;5029703;28;20592;-72
2022/05/30 02:24:11;;;;;;;22.00;10.50;;;7.10;83.10;;;;;;5040140;28;20498;-71
2022/05/30 02:26:38;;;;;;;14.07;8.77;;;7.20;83.50;;;;;;5044142;28;20475;-75
2022/05/30 02:29:06;;;;;;;25.97;11.27;;;7.20;83.60;;;;;;5044700;28;20768;-74
2022/05/30 02:31:33;;;;;;;12.60;7.93;;;7.30;82.70;;;;;;5045227;28;20679;-72
2022/05/30 02:36:45;;;;;;;13.93;5.77;;;7.30;82.00;;;;;;5037690;28;21180;-74
2022/05/30 02:39:14;;;;;;;21.57;11.70;;;7.30;81.50;;;;;;5034898;28;20640;-73
2022/05/30 02:41:42;;;;;;;12.23;7.17;;;7.20;81.40;;;;;;5051011;28;20483;-72
2022/05/30 02:44:10;;;;;;;16.37;8.83;;;6.90;82.20;;;;;;5032076;28;21179;-71
2022/05/30 02:46:37;;;;;;;15.70;8.50;;;6.70;82.70;;;;;;5032104;28;20990;-72
2022/05/30 02:49:05;;;;;;;23.10;11.03;;;6.70;82.90;;;;;;5036955;28;20477;-75
2022/05/30 02:51:32;;;;;;;14.20;7.60;;;5.60;81.90;;;;;;5044900;28;20491;-74
2022/05/30 02:54:00;;;;;;;6.53;4.50;;;6.70;83.00;;;;;;5046549;28;20488;-73
2022/05/30 02:56:26;;;;;;;13.10;7.17;;;6.80;82.80;;;;;;5042726;28;20813;-74
2022/05/30 02:58:54;;;;;;;10.30;6.30;;;6.90;82.80;;;;;;5033272;28;20887;-71
2022/05/30 03:01:21;;;;;;;10.37;6.13;;;6.90;82.60;;;;;;5054488;28;20473;-72
2022/05/30 03:03:47;;;;;;;14.50;6.57;;;7.10;83.50;;;;;;5035841;28;20501;-72
2022/05/30 03:06:14;;;;;;;20.77;11.30;;;7.10;83.50;;;;;;5046576;28;20862;-74
2022/05/30 03:08:41;;;;;;;14.70;8.63;;;7.10;82.30;;;;;;5037311;28;20477;-72
2022/05/30 03:11:10;;;;;;;18.77;9.57;;;7.00;82.30;;;;;;5044150;28;20496;-75
2022/05/30 03:13:37;;;;;;;14.17;8.20;;;6.90;82.20;;;;;;5053329;28;21020;-74
2022/05/30 03:16:04;;;;;;;14.60;7.63;;;6.80;82.40;;;;;;5042544;28;20471;-75
2022/05/30 03:18:31;;;;;;;19.40;7.90;;;6.50;82.60;;;;;;5036980;28;20499;-73
2022/05/30 03:20:58;;;;;;;8.47;5.30;;;6.40;82.70;;;;;;5034147;28;20493;-74
2022/05/30 03:23:26;;;;;;;10.40;6.33;;;6.30;82.80;;;;;;5027535;28;20515;-75
2022/05/30 03:25:52;;;;;;;21.60;6.50;;;6.30;82.90;;;;;;5027741;28;20494;-73
2022/05/30 03:28:22;;;;;;;13.97;7.50;;;6.30;83.40;;;;;;5021654;28;20483;-72
2022/05/30 03:30:49;;;;;;;10.90;6.87;;;6.30;84.50;;;;;;5035633;28;20484;-73
2022/05/30 03:33:16;;;;;;;19.50;9.57;;;6.40;84.40;;;;;;5048967;28;20936;-71
2022/05/30 03:35:42;;;;;;;16.57;9.40;;;6.40;84.90;;;;;;5040700;28;20581;-70
2022/05/30 03:38:10;;;;;;;17.20;9.50;;;6.50;84.70;;;;;;5047288;28;20489;-72
2022/05/30 03:40:38;;;;;;;14.93;6.53;;;6.70;84.70;;;;;;5037386;28;20478;-74
2022/05/30 03:43:07;;;;;;;13.43;7.47;;;6.70;83.30;;;;;;5024624;28;20487;-72
2022/05/30 03:45:36;;;;;;;14.90;8.43;;;6.60;82.70;;;;;;5044105;28;20474;-72
2022/05/30 03:48:03;;;;;;;18.37;6.70;;;6.70;82.50;;;;;;5037983;28;20503;-73
2022/05/30 03:50:30;;;;;;;9.67;5.77;;;6.70;82.20;;;;;;5041535;28;20874;-74
2022/05/30 03:52:57;;;;;;;8.07;5.50;;;6.70;82.40;;;;;;5037243;28;20473;-74
2022/05/30 03:55:24;;;;;;;16.33;6.37;;;6.70;82.60;;;;;;5036422;28;20491;-72
2022/05/30 03:57:52;;;;;;;13.17;8.00;;;6.70;82.80;;;;;;5037334;28;20786;-74
2022/05/30 04:00:22;;;;;;;14.20;8.13;;;6.70;83.10;;;;;;5038363;28;21100;-72
2022/05/30 04:02:50;;;;;;;18.37;6.87;;;6.80;83.10;;;;;;5043893;28;20480;-72
2022/05/30 04:05:18;;;;;;;14.70;8.30;;;6.80;83.00;;;;;;5012594;28;20792;-72
2022/05/30 04:07:45;;;;;;;11.40;6.80;;;6.60;82.30;;;;;;5046872;28;20481;-72
2022/05/30 04:10:13;;;;;;;23.33;7.90;;;6.40;82.60;;;;;;5043562;28;20483;-74
2022/05/30 04:12:40;;;;;;;11.53;6.77;;;6.30;82.90;;;;;;5024778;28;20481;-75
2022/05/30 04:15:16;;;;;;;21.63;10.83;;;6.30;83.00;;;;;;5045082;28;20657;-75
2022/05/30 04:17:43;;;;;;;13.60;7.73;;;6.30;83.50;;;;;;5042305;28;20488;-73
2022/05/30 04:20:13;;;;;;;24.77;11.97;;;6.30;83.70;;;;;;5038980;28;20489;-72
2022/05/30 04:22:39;;;;;;;10.40;6.50;;;6.40;84.30;;;;;;5033900;28;21379;-74
2022/05/30 04:25:07;;;;;;;8.97;5.70;;;6.40;84.70;;;;;;5042000;28;20484;-71
2022/05/30 04:27:34;;;;;;;10.90;6.87;;;6.50;85.20;;;;;;5028812;28;20480;-72
2022/05/30 04:30:01;;;;;;;9.23;5.73;;;6.60;85.60;;;;;;5042598;28;20477;-73
2022/05/30 04:32:27;;;;;;;12.00;6.93;;;6.70;85.80;;;;;;5035663;28;20989;-74
2022/05/30 04:34:54;;;;;;;18.03;7.63;;;6.90;85.60;;;;;;5063312;28;20486;-75
2022/05/30 04:37:22;;;;;;;11.43;5.90;;;7.00;85.10;;;;;;5026490;28;21034;-74
2022/05/30 04:39:49;;;;;;;16.30;8.47;;;7.10;84.70;;;;;;5033125;28;20475;-73
2022/05/30 04:42:16;;;;;;;20.67;10.23;;;7.20;84.80;;;;;;5033292;28;20481;-73
2022/05/30 04:44:43;;;;;;;10.27;5.73;;;7.40;85.70;;;;;;5029740;28;20838;-77
2022/05/30 04:47:11;;;;;;;28.30;13.07;;;7.60;85.20;;;;;;5035834;28;20464;-74
2022/05/30 04:49:38;;;;;;;17.83;8.07;;;7.90;85.80;;;;;;5042975;28;20469;-71
2022/05/30 04:52:06;;;;;;;26.60;8.60;;;8.10;85.80;;;;;;5042995;28;20934;-74
2022/05/30 04:54:34;;;;;;;8.43;5.37;;;8.20;85.40;;;;;;5029630;28;20895;-73
2022/05/30 04:57:00;;;;;;;7.50;5.03;;;8.50;85.10;;;;;;5042206;28;20511;-73
2022/05/30 04:59:28;;;;;;;16.70;5.57;;;8.70;84.90;;;;;;5048903;28;20984;-73
2022/05/30 05:01:55;;;;;;;6.93;5.40;;;8.80;84.60;;;;;;5039626;28;21072;-74
2022/05/30 05:04:22;;;;;;;10.17;5.80;;;8.90;84.50;;;;;;5042061;28;20495;-72
2022/05/30 05:06:50;;;;;;;17.57;6.40;;;9.10;85.30;;;;;;5040823;28;20477;-74
2022/05/30 05:09:26;;;;;;;20.23;12.00;;;9.10;86.60;;;;;;5041085;28;20477;-74
2022/05/30 05:11:54;;;;;;;12.73;6.40;;;9.40;87.80;;;;;;5039546;28;20493;-74
2022/05/30 05:14:21;;;;;;;8.20;6.07;;;9.50;88.10;;;;;;5037108;28;20866;-75
2022/05/30 05:16:48;;;;;;;12.27;8.93;;;9.70;88.10;;;;;;5040668;28;21077;-74
2022/05/30 05:19:15;;;;;;;19.37;12.40;;;9.90;88.00;;;;;;5037901;28;20475;-71
2022/05/30 05:21:46;;;;;;;13.10;8.53;;;10.10;87.20;;;;;;5041030;28;20884;-73
2022/05/30 05:24:15;;;;;;;20.13;11.80;;;10.20;86.80;;;;;;5029015;28;20572;-73
2022/05/30 05:26:47;;;;;;;10.83;7.37;;;10.40;87.00;;;;;;5035934;28;20552;-74
2022/05/30 05:29:17;;;;;;;19.80;11.43;;;10.50;86.90;;;;;;5034319;28;20480;-75
2022/05/30 05:31:45;;;;;;;14.30;8.80;;;10.60;86.70;;;;;;5034449;28;20467;-75
2022/05/30 05:34:14;;;;;;;18.03;8.60;;;10.80;88.70;;;;;;5040146;28;20483;-73
2022/05/30 05:36:44;;;;;;;16.10;10.00;;;10.90;88.00;;;;;;5043489;28;20489;-73
2022/05/30 05:39:11;;;;;;;27.23;15.53;;;11.10;87.50;;;;;;5040659;28;21202;-74
2022/05/30 05:41:40;;;;;;;16.07;9.90;;;11.20;87.70;;;;;;5039392;28;20597;-74
2022/05/30 05:44:07;;;;;;;20.83;11.37;;;11.20;88.00;;;;;;5042019;28;20487;-73
2022/05/30 05:46:35;;;;;;;14.93;9.60;;;11.30;88.40;;;;;;5040611;28;21036;-74
2022/05/30 05:49:02;;;;;;;15.93;9.57;;;11.40;88.40;;;;;;5033290;28;20703;-73
2022/05/30 05:51:29;;;;;;;15.53;10.10;;;11.50;88.60;;;;;;5053908;28;20616;-73
2022/05/30 05:53:57;;;;;;;21.00;9.10;;;11.70;88.60;;;;;;5046506;28;20897;-72
2022/05/30 05:56:26;;;;;;;16.10;9.47;;;11.80;89.20;;;;;;5034563;28;20479;-73
2022/05/30 05:58:53;;;;;;;16.50;10.23;;;11.90;89.20;;;;;;5043300;28;20484;-74
2022/05/30 06:01:21;;;;;;;21.77;8.70;;;12.00;88.60;;;;;;5038870;28;20502;-74
2022/05/30 06:03:53;;;;;;;22.73;9.27;;;12.10;88.80;;;;;;5031838;28;20488;-73
2022/05/30 06:06:19;;;;;;;19.20;13.10;;;12.20;88.40;;;;;;5051174;28;21337;-74
2022/05/30 06:08:46;;;;;;;22.10;8.53;;;12.30;88.20;;;;;;5046102;28;20870;-71
2022/05/30 06:11:14;;;;;;;21.07;12.50;;;12.40;88.40;;;;;;5040855;28;20490;-72
2022/05/30 06:13:42;;;;;;;13.27;9.83;;;12.50;89.10;;;;;;5042229;28;20478;-73
2022/05/30 06:16:11;;;;;;;23.63;10.90;;;12.60;89.10;;;;;;5044402;28;20477;-73
2022/05/30 06:18:38;;;;;;;18.03;9.83;;;12.70;88.80;;;;;;5028764;28;20485;-75
2022/05/30 06:21:07;;;;;;;14.87;9.73;;;12.90;88.30;;;;;;5056863;28;20483;-75
2022/05/30 06:23:34;;;;;;;21.37;8.50;;;13.00;87.60;;;;;;5043193;28;20489;-75
2022/05/30 06:26:04;;;;;;;15.43;9.80;;;9.60;85.90;;;;;;5041260;28;20486;-72
2022/05/30 06:28:31;;;;;;;15.77;10.10;;;;;;;;;;5042548;28;20487;-74
2022/05/30 06:30:58;;;;;;;10.90;7.87;;;13.40;87.80;;;;;;5039220;28;20480;-74
2022/05/30 06:33:25;;;;;;;13.90;8.17;;;13.50;86.90;;;;;;5042517;28;20847;-73
2022/05/30 06:35:52;;;;;;;13.10;9.20;;;;;;;;;;5038229;28;20497;-71
2022/05/30 06:38:20;;;;;;;21.10;10.37;;;13.90;87.40;;;;;;5041496;28;20492;-73
2022/05/30 06:40:47;;;;;;;21.23;11.87;;;14.10;87.50;;;;;;5042343;28;20522;-73
2022/05/30 06:43:14;;;;;;;27.80;14.00;;;14.30;86.60;;;;;;5035969;28;20833;-74
2022/05/30 06:45:40;;;;;;;22.70;12.10;;;14.40;85.60;;;;;;5048660;28;20483;-73
2022/05/30 06:48:08;;;;;;;25.07;12.67;;;14.60;84.90;;;;;;5032135;28;20479;-74
2022/05/30 06:50:37;;;;;;;18.90;10.43;;;14.70;85.10;;;;;;5035988;28;20961;-75
2022/05/30 06:53:03;;;;;;;18.70;10.30;;;14.80;84.30;;;;;;5042786;28;20921;-73
2022/05/30 06:55:33;;;;;;;16.13;7.87;;;14.90;84.70;;;;;;5042295;28;20481;-73
2022/05/30 06:58:15;;;;;;;14.33;9.20;;;15.10;84.50;;;;;;5044373;28;20895;-72
2022/05/30 07:00:44;;;;;;;20.30;11.40;;;15.10;84.30;;;;;;5047540;28;20653;-74
2022/05/30 07:03:12;;;;;;;22.97;12.30;;;16.90;84.80;;;;;;5050941;28;20943;-75
2022/05/30 07:05:39;;;;;;;23.30;12.93;;;15.50;82.50;;;;;;5047066;28;20965;-75
2022/05/30 07:08:07;;;;;;;20.23;10.80;;;15.70;82.30;;;;;;5041722;28;20482;-72
2022/05/30 07:10:37;;;;;;;24.00;11.27;;;15.90;81.50;;;;;;5039386;28;20481;-74
2022/05/30 07:13:05;;;;;;;17.50;8.60;;;16.00;81.60;;;;;;5038255;28;20482;-73
2022/05/30 07:15:34;;;;;;;12.57;7.50;;;16.20;81.20;;;;;;5044606;28;20570;-72
2022/05/30 07:18:10;;;;;;;31.97;6.03;;;16.40;81.00;;;;;;5041145;28;20477;-73
2022/05/30 07:20:37;;;;;;;19.07;10.97;;;16.60;80.40;;;;;;5030507;28;21044;-75
2022/05/30 07:23:05;;;;;;;19.40;9.03;;;16.80;79.90;;;;;;5042449;28;20514;-73
2022/05/30 07:25:37;;;;;;;19.13;7.43;;;17.00;79.10;;;;;;5033477;28;20484;-75
2022/05/30 07:28:04;;;;;;;13.70;6.90;;;17.20;79.10;;;;;;5037571;28;20490;-73
2022/05/30 07:30:31;;;;;;;20.67;8.63;;;17.50;77.70;;;;;;5039336;28;20840;-72
2022/05/30 07:32:58;;;;;;;16.20;8.90;;;17.60;76.90;;;;;;5038038;28;20479;-72
2022/05/30 07:35:25;;;;;;;12.77;6.60;;;17.80;77.20;;;;;;5036016;28;20511;-72
2022/05/30 07:37:52;;;;;;;16.17;6.57;;;18.00;76.40;;;;;;5042020;28;20985;-73
2022/05/30 07:40:20;;;;;;;18.30;10.37;;;18.00;74.60;;;;;;5038207;28;20483;-74
2022/05/30 07:42:49;;;;;;;9.80;6.60;;;18.60;76.20;;;;;;5035769;28;21167;-73
2022/05/30 07:45:15;;;;;;;10.03;6.63;;;18.30;75.90;;;;;;5041030;28;20574;-72
2022/05/30 07:47:42;;;;;;;13.77;9.00;;;18.40;75.70;;;;;;5038156;28;21283;-75
2022/05/30 07:50:10;;;;;;;10.93;7.50;;;18.60;74.90;;;;;;5039037;28;20486;-75
2022/05/30 07:52:37;;;;;;;26.97;7.93;;;18.80;75.00;;;;;;5041966;28;20846;-75
2022/05/30 07:55:04;;;;;;;11.17;6.37;;;19.00;76.00;;;;;;5044834;28;20479;-74
2022/05/30 08:00:19;;;;;;;12.97;8.10;;;19.40;73.80;;;;;;5039774;28;20493;-72
2022/05/30 08:02:46;;;;;;;14.13;7.40;;;19.60;72.60;;;;;;5034823;28;20571;-73
2022/05/30 08:05:14;;;;;;;17.83;7.47;;;19.80;72.20;;;;;;5038621;28;21182;-73
2022/05/30 08:07:42;;;;;;;19.00;9.50;;;20.00;72.90;;;;;;5042003;28;20973;-76
2022/05/30 08:10:10;;;;;;;10.17;6.57;;;20.10;73.20;;;;;;5038740;28;20491;-76
2022/05/30 08:12:37;;;;;;;27.93;9.07;;;20.30;71.80;;;;;;5047603;28;20935;-74
2022/05/30 08:15:04;;;;;;;13.93;6.67;;;20.50;71.70;;;;;;5046231;28;20494;-74
2022/05/30 08:17:33;;;;;;;14.03;7.93;;;20.70;72.10;;;;;;5042743;28;20476;-74
2022/05/30 08:20:01;;;;;;;23.43;8.30;;;20.80;71.80;;;;;;5042365;28;20479;-74
2022/05/30 08:22:28;;;;;;;18.23;9.30;;;20.80;71.30;;;;;;5036491;28;20866;-74
2022/05/30 08:24:55;;;;;;;11.97;7.70;;;22.60;72.60;;;;;;5045559;28;20825;-75
2022/05/30 08:27:23;;;;;;;17.73;6.20;;;21.10;68.90;;;;;;5027578;28;20543;-75
2022/05/30 08:29:50;;;;;;;13.27;8.17;;;20.90;69.90;;;;;;5041517;28;20467;-75
2022/05/30 08:32:17;;;;;;;9.80;6.40;;;20.80;65.40;;;;;;5037754;28;20474;-74
2022/05/30 08:34:45;;;;;;;18.23;6.37;;;20.90;69.80;;;;;;5039297;28;20478;-74
2022/05/30 08:37:12;;;;;;;12.97;6.50;;;21.00;70.10;;;;;;5033061;28;20514;-74
2022/05/30 08:42:28;;;;;;;14.23;7.57;;;21.60;67.20;;;;;;5035239;28;20472;-73
2022/05/30 08:44:55;;;;;;;17.77;8.93;;;21.60;67.50;;;;;;5039120;28;20576;-75
2022/05/30 08:47:41;;;;;;;19.50;6.70;;;21.80;65.70;;;;;;5031051;28;20576;-75
2022/05/30 08:50:22;;;;;;;15.87;9.10;;;21.50;63.50;;;;;;5042349;28;20485;-73
2022/05/30 08:53:10;;;;;;;13.00;7.50;;;21.50;65.10;;;;;;5045684;28;20982;-72
2022/05/30 08:55:45;;;;;;;30.23;8.50;;;21.10;63.20;;;;;;5037649;28;20478;-72
2022/05/30 08:58:28;;;;;;;15.50;8.47;;;20.70;62.40;;;;;;5034707;28;20524;-75
2022/05/30 09:01:00;;;;;;;15.97;8.10;;;20.20;63.40;;;;;;5040812;28;20477;-75
2022/05/30 09:03:31;;;;;;;17.43;8.23;;;19.70;61.20;;;;;;5029257;28;21257;-73
2022/05/30 09:06:05;;;;;;;19.60;8.80;;;19.10;64.00;;;;;;5030655;28;20589;-74
2022/05/30 09:08:37;;;;;;;21.47;9.17;;;18.70;62.40;;;;;;5034707;28;20466;-73
2022/05/30 09:11:08;;;;;;;12.57;7.07;;;18.50;66.90;;;;;;5039751;28;20557;-75
2022/05/30 09:13:38;;;;;;;23.53;7.27;;;18.40;66.80;;;;;;5027146;28;20480;-74
2022/05/30 09:16:14;;;;;;;20.03;9.03;;;18.30;65.30;;;;;;5043445;28;21056;-75
2022/05/30 09:18:46;;;;;;;27.67;10.70;;;18.20;64.90;;;;;;5038271;28;20474;-74
2022/05/30 09:21:15;;;;;;;15.20;7.70;;;18.10;66.10;;;;;;5037967;28;20476;-73
2022/05/30 09:23:42;;;;;;;16.37;7.87;;;17.90;64.20;;;;;;5048059;28;20894;-75
2022/05/30 09:26:13;;;;;;;8.33;4.23;;;17.90;65.50;;;;;;5039941;28;20804;-73
2022/05/30 09:28:45;;;;;;;25.10;9.73;;;17.70;66.00;;;;;;5041807;28;20485;-74
2022/05/30 09:31:29;;;;;;;16.53;8.17;;;17.70;66.00;;;;;;5046544;28;20543;-73
2022/05/30 09:33:58;;;;;;;20.47;9.07;;;17.80;65.50;;;;;;5048753;28;20479;-73
2022/05/30 09:36:28;;;;;;;16.27;7.70;;;17.90;66.60;;;;;;5041580;28;20482;-73
2022/05/30 09:38:59;;;;;;;15.80;7.60;;;18.20;67.00;;;;;;5044866;28;20467;-73
2022/05/30 09:41:28;;;;;;;12.90;7.40;;;18.80;69.80;;;;;;5035327;28;20497;-73
2022/05/30 09:43:58;;;;;;;38.57;7.37;;;19.30;69.60;;;;;;5052150;28;20555;-73
2022/05/30 09:46:35;;;;;;;14.77;7.97;;;19.80;69.70;;;;;;5042140;28;20488;-72
2022/05/30 09:49:15;;;;;;;21.40;10.90;;;20.30;68.70;;;;;;5038222;28;20999;-73
2022/05/30 09:51:46;;;;;;;10.73;6.87;;;20.50;66.20;;;;;;5038422;28;20478;-75
2022/05/30 09:54:30;;;;;;;10.43;6.80;;;20.60;65.70;;;;;;5025674;28;20503;-73
2022/05/30 09:57:04;;;;;;;11.90;8.10;;;20.60;65.40;;;;;;5043971;28;20485;-75
2022/05/30 09:59:34;;;;;;;12.53;6.20;;;;;;;;;;5043761;28;20474;-72
2022/05/30 10:02:03;;;;;;;14.07;7.83;;;20.80;67.50;;;;;;5039776;28;20483;-72
2022/05/30 10:04:39;;;;;;;10.00;6.47;;;21.10;67.70;;;;;;5039847;28;20568;-73
2022/05/30 10:07:13;;;;;;;8.87;4.83;;;21.50;66.70;;;;;;5043375;28;20548;-72
2022/05/30 10:09:50;;;;;;;9.47;6.87;;;21.90;66.90;;;;;;5039409;28;20471;-75
2022/05/30 10:12:28;;;;;;;13.83;6.10;;;22.30;66.80;;;;;;5032973;28;20565;-72
2022/05/30 10:14:55;;;;;;;17.53;7.23;;;22.50;63.90;;;;;;5039429;28;20488;-75
2022/05/30 10:17:29;;;;;;;7.97;6.00;;;22.70;63.70;;;;;;5039778;28;20859;-73
2022/05/30 10:19:56;;;;;;;12.13;8.17;;;23.00;65.10;;;;;;5044057;28;20481;-73
2022/05/30 10:28:35;;;;;;;9.40;6.90;;;23.40;63.00;;;;;;5028646;28;20527;-75
2022/05/30 10:31:11;;;;;;;11.73;8.10;;;23.20;62.10;;;;;;5044323;28;20496;-75
2022/05/30 10:33:59;;;;;;;7.93;5.77;;;23.00;62.10;;;;;;5044181;28;20485;-73
2022/05/30 10:36:33;;;;;;;33.47;7.03;;;22.70;62.20;;;;;;5041175;28;20482;-74
2022/05/30 10:39:13;;;;;;;15.93;9.70;;;22.50;63.60;;;;;;5040758;28;20467;-73
2022/05/30 10:41:47;;;;;;;32.07;6.53;;;22.40;62.80;;;;;;5039407;28;20490;-73
2022/05/30 10:44:22;;;;;;;12.80;8.13;;;22.30;63.50;;;;;;5047474;28;20895;-73
2022/05/30 10:46:58;;;;;;;11.67;6.40;;;22.30;64.30;;;;;;5028568;28;20485;-74
2022/05/30 10:49:28;;;;;;;12.13;7.40;;;22.30;61.80;;;;;;5041194;28;20486;-73
2022/05/30 10:51:59;;;;;;;11.13;7.20;;;22.20;61.30;;;;;;5046170;28;20840;-71
2022/05/30 10:54:32;;;;;;;14.13;5.63;;;21.90;60.10;;;;;;5045359;28;20486;-72
2022/05/30 10:57:11;;;;;;;15.50;8.70;;;21.70;61.90;;;;;;5051335;28;20670;-72
2022/05/30 10:59:43;;;;;;;18.47;7.00;;;21.50;61.80;;;;;;5046609;28;20489;-72
2022/05/30 11:02:15;;;;;;;20.50;10.10;;;21.40;62.30;;;;;;5043578;28;20493;-75
2022/05/30 11:04:48;;;;;;;16.73;8.00;;;21.40;64.50;;;;;;5044636;28;20476;-73
2022/05/30 11:07:45;;;;;;;16.70;7.40;;;21.40;64.30;;;;;;5037498;28;20755;-74
2022/05/30 11:10:24;;;;;;;18.37;6.87;;;21.50;61.20;;;;;;5043505;28;20819;-72
2022/05/30 11:13:01;;;;;;;17.33;8.20;;;21.60;63.50;;;;;;5041631;28;20481;-72
2022/05/30 11:15:32;;;;;;;19.60;5.20;;;21.80;63.70;;;;;;5038908;28;20474;-71
2022/05/30 11:18:07;;;;;;;18.50;8.60;;;21.80;63.70;;;;;;5042072;28;20477;-70
2022/05/30 11:20:37;;;;;;;32.87;9.97;;;21.80;62.50;;;;;;5038317;28;20490;-73
2022/05/30 11:23:07;;;;;;;21.37;9.67;;;21.80;61.30;;;;;;5045571;28;20885;-72
2022/05/30 11:25:53;;;;;;;16.80;7.60;;;22.10;62.50;;;;;;5045757;28;20524;-72
2022/05/30 11:28:30;;;;;;;13.30;6.67;;;22.40;64.00;;;;;;5040585;28;20477;-74
2022/05/30 11:31:06;;;;;;;21.33;9.73;;;22.80;61.80;;;;;;5045645;28;20488;-73
2022/05/30 11:33:48;;;;;;;12.60;6.63;;;23.00;60.00;;;;;;5049209;28;20482;-71
2022/05/30 11:36:51;;;;;;;19.93;9.00;;;23.10;60.00;;;;;;5034715;28;21065;-72
2022/05/30 11:39:32;;;;;;;13.93;6.73;;;23.40;61.40;;;;;;5031473;28;21004;-73
2022/05/30 11:42:12;;;;;;;14.67;7.17;;;23.60;59.80;;;;;;5043809;28;20474;-72
2022/05/30 11:44:47;;;;;;;11.53;6.67;;;23.80;58.40;;;;;;5043422;28;20987;-72
2022/05/30 11:47:33;;;;;;;12.70;6.87;;;24.10;60.10;;;;;;5044217;28;20515;-72
2022/05/30 11:50:20;;;;;;;20.10;6.30;;;24.20;58.40;;;;;;5030272;28;20482;-72
2022/05/30 11:53:14;;;;;;;10.23;6.37;;;24.30;57.20;;;;;;5036991;28;21003;-72
2022/05/30 11:55:48;;;;;;;13.90;8.10;;;24.30;58.10;;;;;;5039923;28;20475;-74
2022/05/30 11:58:26;;;;;;;13.17;7.63;;;24.30;57.80;;;;;;5034831;28;20852;-74
2022/05/30 12:00:58;;;;;;;11.30;7.30;;;24.40;56.80;;;;;;5035683;28;20474;-71
2022/05/30 12:04:06;;;;;;;13.60;6.77;;;24.60;58.30;;;;;;5026401;28;20584;-72
2022/05/30 12:06:52;;;;;;;14.27;7.90;;;24.70;55.70;;;;;;5033694;28;20495;-73
2022/05/30 12:09:38;;;;;;;13.80;7.33;;;24.70;57.00;;;;;;5046471;28;20471;-72
2022/05/30 12:12:19;;;;;;;19.97;7.97;;;24.60;56.70;;;;;;5037738;28;20518;-73
2022/05/30 12:15:39;;;;;;;13.33;7.40;;;24.80;57.50;;;;;;5041112;28;20648;-73
2022/05/30 12:24:25;;;;;;;15.87;8.47;;;23.20;51.50;;;;;;5034465;28;20246;-73
2022/05/30 12:27:00;;;;;;;17.60;5.03;;;22.70;51.90;;;;;;5047107;28;20479;-71
2022/05/30 12:29:48;;;;;;;10.83;6.97;;;22.30;52.10;;;;;;5036181;28;20496;-74
2022/05/30 12:32:46;;;;;;;18.53;8.53;;;22.00;50.60;;;;;;5045309;28;20480;-73
2022/05/30 12:35:33;;;;;;;16.33;4.97;;;22.40;54.10;;;;;;4996469;28;20546;-71
2022/05/30 12:38:17;;;;;;;12.53;6.73;;;22.40;54.50;;;;;;5032025;28;20506;-71
2022/05/30 12:41:15;;;;;;;14.13;6.43;;;22.80;58.60;;;;;;5039372;28;20541;-72
2022/05/30 12:43:45;;;;;;;6.53;4.23;;;23.50;58.30;;;;;;5046015;28;20475;-70
2022/05/30 12:46:17;;;;;;;15.07;8.80;;;24.00;56.90;;;;;;5037949;28;20494;-74
2022/05/30 12:49:06;;;;;;;36.87;7.60;;;24.40;56.10;;;;;;5042056;28;20642;-72
2022/05/30 12:52:01;;;;;;;12.03;7.47;;;24.70;56.60;;;;;;5035684;28;20553;-71
2022/05/30 12:54:45;;;;;;;11.67;7.30;;;24.40;54.50;;;;;;5043723;28;20586;-72
2022/05/30 12:57:35;;;;;;;19.90;7.03;;;24.10;55.20;;;;;;5044766;28;20974;-70
2022/05/30 13:00:44;;;;;;;13.47;6.80;;;23.90;55.80;;;;;;5043178;28;21061;-72
2022/05/30 13:03:24;;;;;;;28.03;11.17;;;23.30;56.60;;;;;;5030248;28;20475;-71
2022/05/30 13:06:10;;;;;;;14.10;8.37;;;23.00;55.40;;;;;;5037745;28;21125;-72
2022/05/30 13:09:16;;;;;;;10.10;6.33;;;22.80;56.40;;;;;;5027919;28;20915;-72
2022/05/30 13:12:09;;;;;;;8.63;5.83;;;22.70;57.10;;;;;;5035393;28;20502;-71
2022/05/30 13:14:59;;;;;;;12.03;7.10;;;23.00;57.60;;;;;;5032615;28;20486;-71
2022/05/30 13:17:38;;;;;;;11.20;7.13;;;23.20;58.30;;;;;;5031659;28;20475;-72
2022/05/30 13:20:08;;;;;;;16.17;9.20;;;23.40;56.50;;;;;;5033213;28;20836;-73
2022/05/30 13:22:40;;;;;;;12.40;7.57;;;23.20;54.60;;;;;;5030889;28;20686;-72
2022/05/30 13:25:12;;;;;;;17.13;9.43;;;23.10;55.20;;;;;;5023103;28;20482;-72
2022/05/30 13:27:39;;;;;;;13.70;4.63;;;23.00;56.60;;;;;;5033631;28;20467;-70
2022/05/30 13:30:09;;;;;;;16.07;8.80;;;22.50;54.90;;;;;;5045261;28;20846;-72
2022/05/30 13:32:36;;;;;;;12.47;7.30;;;22.10;53.30;;;;;;5025588;28;20482;-72